createdAt,value
2023-03-19T00:00:33.914Z,11.63
2023-03-19T00:03:00.675Z,11.75
2023-03-19T00:05:27.252Z,11.49
2023-03-19T00:07:53.644Z,11.68
2023-03-19T00:10:20.557Z,11.35
2023-03-19T00:12:47.392Z,11.62
2023-03-19T00:15:15.324Z,11.57
2023-03-19T00:17:43.004Z,11.52
2023-03-19T00:20:11.677Z,11.26
2023-03-19T00:22:39.800Z,11.11
2023-03-19T00:25:08.152Z,11.36
2023-03-19T00:27:34.852Z,11.14
2023-03-19T00:30:02.537Z,11.42
2023-03-19T00:32:29.287Z,11.37
2023-03-19T00:34:55.716Z,11.31
2023-03-19T00:37:22.541Z,11.08
2023-03-19T00:39:49.158Z,10.39
2023-03-19T00:42:15.638Z,10.73
2023-03-19T00:44:42.114Z,10.44
2023-03-19T00:47:08.645Z,10.93
2023-03-19T00:49:35.269Z,10.42
2023-03-19T00:52:01.763Z,10.79
2023-03-19T00:54:28.176Z,10.48
2023-03-19T00:56:54.590Z,10.25
2023-03-19T00:59:21.032Z,10.64
2023-03-19T01:01:47.569Z,10.15
2023-03-19T01:04:15.108Z,10.48
2023-03-19T01:06:41.837Z,10.52
2023-03-19T01:09:08.467Z,10.17
2023-03-19T01:11:35.262Z,10.47
2023-03-19T01:14:02.484Z,10.45
2023-03-19T01:16:29.123Z,10.24
2023-03-19T01:18:55.625Z,10.14
2023-03-19T01:21:22.077Z,9.86
2023-03-19T01:23:48.686Z,10.03
2023-03-19T01:26:15.313Z,10.09
2023-03-19T01:28:41.900Z,9.70
2023-03-19T01:31:09.522Z,10.02
2023-03-19T01:33:37.584Z,10.04
2023-03-19T01:36:05.479Z,10.20
2023-03-19T01:38:32.542Z,9.67
2023-03-19T01:40:59.246Z,9.97
2023-03-19T01:43:28.782Z,9.83
2023-03-19T01:46:27.090Z,9.70
2023-03-19T01:49:00.101Z,9.75
2023-03-19T01:51:31.962Z,10.26
2023-03-19T01:54:09.377Z,10.00
2023-03-19T01:56:38.609Z,10.33
2023-03-19T01:59:17.872Z,10.12
2023-03-19T02:01:58.249Z,10.32
2023-03-19T02:04:27.296Z,10.08
2023-03-19T02:06:58.032Z,10.31
2023-03-19T02:09:26.097Z,10.13
2023-03-19T02:11:54.189Z,10.31
2023-03-19T02:14:21.507Z,9.79
2023-03-19T02:16:48.219Z,10.10
2023-03-19T02:19:22.102Z,10.31
2023-03-19T02:21:49.619Z,10.06
2023-03-19T02:24:22.975Z,10.38
2023-03-19T02:26:50.562Z,9.90
2023-03-19T02:29:17.415Z,10.29
2023-03-19T02:31:44.249Z,9.97
2023-03-19T02:34:38.715Z,10.20
2023-03-19T02:37:19.775Z,10.04
2023-03-19T02:40:04.713Z,9.77
2023-03-19T02:42:31.493Z,9.78
2023-03-19T02:44:58.411Z,10.04
2023-03-19T02:47:26.380Z,9.86
2023-03-19T02:49:53.224Z,9.97
2023-03-19T02:52:20.190Z,9.73
2023-03-19T02:54:46.688Z,9.77
2023-03-19T02:57:13.497Z,9.48
2023-03-19T02:59:40.120Z,9.80
2023-03-19T03:02:07.095Z,9.77
2023-03-19T03:04:34.823Z,9.63
2023-03-19T03:07:01.715Z,9.38
2023-03-19T03:09:28.169Z,9.32
2023-03-19T03:11:54.672Z,9.62
2023-03-19T03:14:21.109Z,9.13
2023-03-19T03:16:47.541Z,9.26
2023-03-19T03:19:14.218Z,9.48
2023-03-19T03:21:41.200Z,9.14
2023-03-19T03:24:07.993Z,9.35
2023-03-19T03:26:35.999Z,8.84
2023-03-19T03:29:02.491Z,9.04
2023-03-19T03:31:30.261Z,9.16
2023-03-19T03:33:56.732Z,9.46
2023-03-19T03:36:23.730Z,9.26
2023-03-19T03:38:50.333Z,9.00
2023-03-19T03:41:16.878Z,9.38
2023-03-19T03:43:43.307Z,8.88
2023-03-19T03:46:09.845Z,9.45
2023-03-19T03:48:36.294Z,9.26
2023-03-19T03:51:03.345Z,9.60
2023-03-19T03:53:32.459Z,9.49
2023-03-19T03:55:59.295Z,9.44
2023-03-19T03:58:25.987Z,9.80
2023-03-19T04:00:52.705Z,9.83
2023-03-19T04:03:19.521Z,9.87
2023-03-19T04:05:46.256Z,9.90
2023-03-19T04:08:12.756Z,9.90
2023-03-19T04:10:40.652Z,9.69
2023-03-19T04:13:07.102Z,9.44
2023-03-19T04:15:33.999Z,9.50
2023-03-19T04:18:01.100Z,9.88
2023-03-19T04:20:27.573Z,9.67
2023-03-19T04:22:53.974Z,10.01
2023-03-19T04:25:20.645Z,9.95
2023-03-19T04:27:47.131Z,9.96
2023-03-19T04:30:14.382Z,10.07
2023-03-19T04:32:41.061Z,9.94
2023-03-19T04:35:08.155Z,10.02
2023-03-19T04:37:34.988Z,9.93
2023-03-19T04:40:01.473Z,10.01
2023-03-19T04:42:28.043Z,10.11
2023-03-19T04:44:54.506Z,9.97
2023-03-19T04:47:21.034Z,9.80
2023-03-19T04:49:48.799Z,9.87
2023-03-19T04:52:18.913Z,9.76
2023-03-19T04:54:45.663Z,9.77
2023-03-19T04:57:12.431Z,10.19
2023-03-19T04:59:38.886Z,10.00
2023-03-19T05:02:06.096Z,10.25
2023-03-19T05:04:32.624Z,10.03
2023-03-19T05:06:59.264Z,10.10
2023-03-19T05:09:26.056Z,10.36
2023-03-19T05:11:52.541Z,10.02
2023-03-19T05:14:19.057Z,9.98
2023-03-19T05:16:45.505Z,10.12
2023-03-19T05:19:12.207Z,10.46
2023-03-19T05:21:39.031Z,10.27
2023-03-19T05:24:05.509Z,10.61
2023-03-19T05:26:32.309Z,10.62
2023-03-19T05:28:58.892Z,10.25
2023-03-19T05:31:25.705Z,10.25
2023-03-19T05:33:52.350Z,9.78
2023-03-19T05:36:19.094Z,10.34
2023-03-19T05:38:45.852Z,10.76
2023-03-19T05:41:12.344Z,10.33
2023-03-19T05:43:38.780Z,10.40
2023-03-19T05:46:05.338Z,10.57
2023-03-19T05:48:31.913Z,10.38
2023-03-19T05:50:59.319Z,10.77
2023-03-19T05:53:25.903Z,10.71
2023-03-19T05:55:52.335Z,10.50
2023-03-19T05:58:18.867Z,10.75
2023-03-19T06:00:45.864Z,10.85
2023-03-19T06:03:12.365Z,10.66
2023-03-19T06:05:39.269Z,10.73
2023-03-19T06:08:06.204Z,10.69
2023-03-19T06:10:35.353Z,10.53
2023-03-19T06:13:02.095Z,10.85
2023-03-19T06:15:28.540Z,10.63
2023-03-19T06:17:54.987Z,10.83
2023-03-19T06:20:21.885Z,10.78
2023-03-19T06:22:48.403Z,11.08
2023-03-19T06:25:15.144Z,10.80
2023-03-19T06:27:41.624Z,10.97
2023-03-19T06:30:09.167Z,11.02
2023-03-19T06:32:36.159Z,10.85
2023-03-19T06:35:03.115Z,11.28
2023-03-19T06:37:29.529Z,11.15
2023-03-19T06:39:56.189Z,10.99
2023-03-19T06:42:23.032Z,11.40
2023-03-19T06:44:52.317Z,11.27
2023-03-19T06:47:19.969Z,11.58
2023-03-19T06:49:46.440Z,11.43
2023-03-19T06:52:12.931Z,11.55
2023-03-19T06:54:39.397Z,11.01
2023-03-19T06:57:06.007Z,11.06
2023-03-19T06:59:32.793Z,11.52
2023-03-19T07:01:59.353Z,11.84
2023-03-19T07:04:26.035Z,11.85
2023-03-19T07:06:52.575Z,11.67
2023-03-19T07:09:19.021Z,11.77
2023-03-19T07:11:45.730Z,11.74
2023-03-19T07:14:12.220Z,12.28
2023-03-19T07:16:39.447Z,12.28
2023-03-19T07:19:05.986Z,12.30
2023-03-19T07:21:32.577Z,12.47
2023-03-19T07:23:59.290Z,12.13
2023-03-19T07:26:25.803Z,12.71
2023-03-19T07:28:52.446Z,12.75
2023-03-19T07:31:19.014Z,12.33
2023-03-19T07:33:45.426Z,12.89
2023-03-19T07:36:12.152Z,12.89
2023-03-19T07:38:38.647Z,13.04
2023-03-19T07:41:05.394Z,13.36
2023-03-19T07:43:31.883Z,13.13
2023-03-19T07:45:59.449Z,13.57
2023-03-19T07:48:26.206Z,13.42
2023-03-19T07:50:53.259Z,13.78
2023-03-19T07:53:20.548Z,13.72
2023-03-19T07:55:47.748Z,13.85
2023-03-19T07:58:14.776Z,13.63
2023-03-19T08:00:41.452Z,14.09
2023-03-19T08:03:08.364Z,14.20
2023-03-19T08:05:34.941Z,14.15
2023-03-19T08:08:01.777Z,14.36
2023-03-19T08:10:28.449Z,14.28
2023-03-19T08:12:54.934Z,14.48
2023-03-19T08:15:21.475Z,14.30
2023-03-19T08:17:49.076Z,13.98
2023-03-19T08:20:16.666Z,14.69
2023-03-19T08:22:43.253Z,14.78
2023-03-19T08:25:10.959Z,14.50
2023-03-19T08:27:37.843Z,14.82
2023-03-19T08:30:07.507Z,15.01
2023-03-19T08:32:34.362Z,14.70
2023-03-19T08:35:01.492Z,15.01
2023-03-19T08:37:28.182Z,15.14
2023-03-19T08:39:54.806Z,14.83
2023-03-19T08:42:22.644Z,15.38
2023-03-19T08:44:49.947Z,15.37
2023-03-19T08:47:16.534Z,14.98
2023-03-19T08:49:42.949Z,15.00
2023-03-19T08:52:10.485Z,15.79
2023-03-19T08:54:43.420Z,15.34
2023-03-19T08:57:10.043Z,15.82
2023-03-19T08:59:36.619Z,15.95
2023-03-19T09:02:03.640Z,15.86
2023-03-19T09:04:37.503Z,16.43
2023-03-19T09:07:03.983Z,16.33
2023-03-19T09:09:30.605Z,16.40
2023-03-19T09:11:57.030Z,16.55
2023-03-19T09:14:23.817Z,16.82
2023-03-19T09:16:50.694Z,17.17
2023-03-19T09:19:17.486Z,17.12
2023-03-19T09:21:44.718Z,17.22
2023-03-19T09:24:11.509Z,17.18
2023-03-19T09:26:38.024Z,17.48
2023-03-19T09:29:04.953Z,17.74
2023-03-19T09:31:31.524Z,17.61
2023-03-19T09:33:58.108Z,17.84
2023-03-19T09:36:25.503Z,17.54
2023-03-19T09:38:52.523Z,17.47
2023-03-19T09:41:49.560Z,17.80
2023-03-19T09:44:30.842Z,17.66
2023-03-19T09:47:32.468Z,17.58
2023-03-19T09:50:21.091Z,17.60
2023-03-19T09:52:50.895Z,17.54
2023-03-19T09:55:23.395Z,17.57
2023-03-19T09:57:51.426Z,17.46
2023-03-19T10:00:24.639Z,17.69
2023-03-19T10:03:18.483Z,17.74
2023-03-19T10:05:57.107Z,17.37
2023-03-19T10:08:46.729Z,17.92
2023-03-19T10:11:31.118Z,18.01
2023-03-19T10:14:32.479Z,17.98
2023-03-19T10:17:01.139Z,17.79
2023-03-19T10:19:47.415Z,18.22
2023-03-19T10:22:24.628Z,18.23
2023-03-19T10:24:56.204Z,18.14
2023-03-19T10:27:26.155Z,18.73
2023-03-19T10:29:52.693Z,18.60
2023-03-19T10:32:59.711Z,19.49
2023-03-19T10:35:41.252Z,19.92
2023-03-19T10:38:25.516Z,20.41
2023-03-19T10:41:31.752Z,20.77
2023-03-19T10:44:12.122Z,20.74
2023-03-19T10:46:39.851Z,20.81
2023-03-19T10:49:13.066Z,20.89
2023-03-19T10:51:39.989Z,20.83
2023-03-19T10:54:23.682Z,20.78
2023-03-19T10:56:51.443Z,20.60
2023-03-19T10:59:23.002Z,20.50
2023-03-19T11:01:49.622Z,20.28
2023-03-19T11:04:22.034Z,20.31
2023-03-19T11:09:51.537Z,20.39
2023-03-19T11:12:35.251Z,20.54
2023-03-19T11:15:07.683Z,20.50
2023-03-19T11:17:39.613Z,20.58
2023-03-19T11:20:22.581Z,20.81
2023-03-19T11:22:52.483Z,20.98
2023-03-19T11:25:23.730Z,21.10
2023-03-19T11:28:06.960Z,21.34
2023-03-19T11:30:43.920Z,21.52
2023-03-19T11:33:33.082Z,21.70
2023-03-19T11:36:13.757Z,21.95
2023-03-19T11:38:54.656Z,21.79
2023-03-19T11:41:49.201Z,22.03
2023-03-19T11:44:47.967Z,21.86
2023-03-19T11:47:40.919Z,21.76
2023-03-19T11:50:19.574Z,21.69
2023-03-19T11:53:07.911Z,21.61
2023-03-19T11:55:48.039Z,21.15
2023-03-19T11:58:52.073Z,21.37
2023-03-19T12:01:21.421Z,21.18
2023-03-19T12:04:00.236Z,21.11
2023-03-19T12:06:54.887Z,20.96
2023-03-19T12:09:38.948Z,20.63
2023-03-19T12:12:17.783Z,20.59
2023-03-19T12:15:22.566Z,20.50
2023-03-19T12:18:21.646Z,20.48
2023-03-19T12:21:50.469Z,20.43
2023-03-19T12:24:34.055Z,20.31
2023-03-19T12:27:35.055Z,20.28
2023-03-19T12:30:30.643Z,20.26
2023-03-19T12:33:09.155Z,20.19
2023-03-19T12:35:38.979Z,19.98
2023-03-19T12:38:21.448Z,19.93
2023-03-19T12:40:53.589Z,19.67
2023-03-19T12:43:43.070Z,19.95
2023-03-19T12:46:16.067Z,19.96
2023-03-19T12:48:51.216Z,19.61
2023-03-19T12:51:21.700Z,19.50
2023-03-19T12:54:01.468Z,19.54
2023-03-19T12:56:32.901Z,20.06
2023-03-19T12:59:13.655Z,19.96
2023-03-19T13:01:47.685Z,19.77
2023-03-19T13:04:26.367Z,20.06
2023-03-19T13:07:03.167Z,20.20
2023-03-19T13:09:43.902Z,20.27
2023-03-19T13:12:15.991Z,19.91
2023-03-19T13:15:14.504Z,20.12
2023-03-19T13:17:49.040Z,20.16
2023-03-19T13:20:40.544Z,20.39
2023-03-19T13:23:09.878Z,20.07
2023-03-19T13:25:42.868Z,20.36
2023-03-19T13:28:22.481Z,20.31
2023-03-19T13:31:00.801Z,19.61
2023-03-19T13:33:30.377Z,19.90
2023-03-19T13:35:57.738Z,19.90
2023-03-19T13:38:34.890Z,19.81
2023-03-19T13:41:02.172Z,19.41
2023-03-19T13:43:29.190Z,19.71
2023-03-19T13:46:15.820Z,19.73
2023-03-19T13:48:45.766Z,19.65
2023-03-19T13:51:12.296Z,19.63
2023-03-19T13:53:53.576Z,19.25
2023-03-19T13:56:29.542Z,19.61
2023-03-19T13:59:15.655Z,19.78
2023-03-19T14:01:44.800Z,19.89
2023-03-19T14:04:22.812Z,20.05
2023-03-19T14:06:53.326Z,20.17
2023-03-19T14:09:40.058Z,20.38
2023-03-19T14:12:23.201Z,20.51
2023-03-19T14:15:00.709Z,19.98
2023-03-19T14:17:34.566Z,20.56
2023-03-19T14:20:25.867Z,20.51
2023-03-19T14:23:39.468Z,20.29
2023-03-19T14:26:24.251Z,20.56
2023-03-19T14:28:58.788Z,20.50
2023-03-19T14:32:05.765Z,20.19
2023-03-19T14:34:42.945Z,20.37
2023-03-19T14:37:24.987Z,20.20
2023-03-19T14:40:00.006Z,20.04
2023-03-19T14:42:32.352Z,19.70
2023-03-19T14:45:31.138Z,19.74
2023-03-19T14:48:16.610Z,19.33
2023-03-19T14:51:23.118Z,19.55
2023-03-19T14:54:21.578Z,19.54
2023-03-19T14:56:48.753Z,19.50
2023-03-19T14:59:15.955Z,19.48
2023-03-19T15:01:49.987Z,19.36
2023-03-19T15:04:17.979Z,19.11
2023-03-19T15:06:57.879Z,18.71
2023-03-19T15:09:33.543Z,18.63
2023-03-19T15:12:18.020Z,18.95
2023-03-19T15:15:15.438Z,18.78
2023-03-19T15:17:45.308Z,18.27
2023-03-19T15:20:18.746Z,17.91
2023-03-19T15:22:54.636Z,17.93
2023-03-19T15:25:21.697Z,17.73
2023-03-19T15:28:13.651Z,17.99
2023-03-19T15:30:53.837Z,17.68
2023-03-19T15:33:40.885Z,17.76
2023-03-19T15:36:13.433Z,17.49
2023-03-19T15:39:02.922Z,17.64
2023-03-19T15:41:32.425Z,17.50
2023-03-19T15:44:06.384Z,17.36
2023-03-19T15:46:37.545Z,17.25
2023-03-19T15:49:30.349Z,17.43
2023-03-19T15:52:01.529Z,17.11
2023-03-19T15:54:28.387Z,17.30
2023-03-19T15:56:56.377Z,17.28
2023-03-19T15:59:27.397Z,17.08
2023-03-19T16:01:59.442Z,16.85
2023-03-19T16:04:29.607Z,17.01
2023-03-19T16:06:59.095Z,17.10
2023-03-19T16:09:33.166Z,17.31
2023-03-19T16:12:01.277Z,17.29
2023-03-19T16:14:35.756Z,17.64
2023-03-19T16:17:13.576Z,17.76
2023-03-19T16:19:52.533Z,17.89
2023-03-19T16:22:33.106Z,17.68
2023-03-19T16:25:01.914Z,17.94
2023-03-19T16:27:36.248Z,17.89
2023-03-19T16:30:04.115Z,17.90
2023-03-19T16:32:32.107Z,17.76
2023-03-19T16:35:12.420Z,17.30
2023-03-19T16:37:46.686Z,17.97
2023-03-19T16:40:13.251Z,17.87
2023-03-19T16:42:51.233Z,17.40
2023-03-19T16:45:27.449Z,16.88
2023-03-19T16:47:56.966Z,16.92
2023-03-19T16:50:44.201Z,17.26
2023-03-19T16:53:22.243Z,17.03
2023-03-19T16:55:49.318Z,16.84
2023-03-19T16:58:19.038Z,16.53
2023-03-19T17:00:48.865Z,16.22
2023-03-19T17:03:17.916Z,15.89
2023-03-19T17:05:46.399Z,16.33
2023-03-19T17:08:13.512Z,15.97
2023-03-19T17:10:49.337Z,15.93
2023-03-19T17:13:28.264Z,16.11
2023-03-19T17:15:56.947Z,15.65
2023-03-19T17:18:25.262Z,15.69
2023-03-19T17:21:00.758Z,15.33
2023-03-19T17:23:27.903Z,15.64
2023-03-19T17:25:54.886Z,15.49
2023-03-19T17:28:21.971Z,14.90
2023-03-19T17:30:49.152Z,14.80
2023-03-19T17:33:23.724Z,15.12
2023-03-19T17:35:51.468Z,14.74
2023-03-19T17:38:19.262Z,14.92
2023-03-19T17:40:46.475Z,14.61
2023-03-19T17:43:13.637Z,14.72
2023-03-19T17:45:49.214Z,14.56
2023-03-19T17:48:25.779Z,14.55
2023-03-19T17:50:58.208Z,14.43
2023-03-19T17:53:24.925Z,14.34
2023-03-19T17:55:51.922Z,14.25
2023-03-19T17:58:21.233Z,13.86
2023-03-19T18:00:49.958Z,13.66
2023-03-19T18:03:18.708Z,13.68
2023-03-19T18:05:45.640Z,13.97
2023-03-19T18:08:17.527Z,13.76
2023-03-19T18:10:44.493Z,13.53
2023-03-19T18:13:11.234Z,12.62
2023-03-19T18:15:40.193Z,13.49
2023-03-19T18:18:11.172Z,13.39
2023-03-19T18:20:39.579Z,13.21
2023-03-19T18:23:06.792Z,13.33
2023-03-19T18:25:35.503Z,12.92
2023-03-19T18:28:03.603Z,12.86
2023-03-19T18:30:33.427Z,12.98
2023-03-19T18:33:02.852Z,12.29
2023-03-19T18:35:36.463Z,12.75
2023-03-19T18:38:03.344Z,12.63
2023-03-19T18:40:33.026Z,12.23
2023-03-19T18:42:59.620Z,12.40
2023-03-19T18:45:30.933Z,12.29
2023-03-19T18:47:57.914Z,11.98
2023-03-19T18:50:29.338Z,12.12
2023-03-19T18:52:56.417Z,11.34
2023-03-19T18:55:30.346Z,11.61
2023-03-19T18:58:00.527Z,11.93
2023-03-19T19:00:33.464Z,11.91
2023-03-19T19:03:01.929Z,11.88
2023-03-19T19:05:30.781Z,11.87
2023-03-19T19:07:58.898Z,11.74
2023-03-19T19:10:30.953Z,11.45
2023-03-19T19:12:57.705Z,10.57
2023-03-19T19:15:25.760Z,12.04
2023-03-19T19:17:52.878Z,12.08
2023-03-19T19:20:25.582Z,12.11
2023-03-19T19:22:53.056Z,12.13
2023-03-19T19:25:25.558Z,12.07
2023-03-19T19:28:01.050Z,12.11
2023-03-19T19:30:28.797Z,11.75
2023-03-19T19:32:55.307Z,11.53
2023-03-19T19:35:24.515Z,11.49
2023-03-19T19:37:51.674Z,11.93
2023-03-19T19:40:21.392Z,11.44
2023-03-19T19:42:52.471Z,11.56
2023-03-19T19:45:23.846Z,11.83
2023-03-19T19:47:50.359Z,11.54
2023-03-19T19:50:18.549Z,11.76
2023-03-19T19:52:45.435Z,11.76
2023-03-19T19:55:11.938Z,10.89
2023-03-19T19:57:42.837Z,11.72
2023-03-19T20:00:16.857Z,11.62
2023-03-19T20:02:43.288Z,11.44
2023-03-19T20:05:23.160Z,11.57
2023-03-19T20:07:55.436Z,11.55
2023-03-19T20:10:24.429Z,11.31
2023-03-19T20:12:54.313Z,11.58
2023-03-19T20:15:27.341Z,11.42
2023-03-19T20:17:54.815Z,11.54
2023-03-19T20:20:32.357Z,11.34
2023-03-19T20:23:01.516Z,11.51
2023-03-19T20:25:30.602Z,11.30
2023-03-19T20:27:59.754Z,11.40
2023-03-19T20:30:38.787Z,11.09
2023-03-19T20:33:06.124Z,11.01
2023-03-19T20:35:36.101Z,11.27
2023-03-19T20:38:05.279Z,11.09
2023-03-19T20:40:34.255Z,11.18
2023-03-19T20:43:01.724Z,10.98
2023-03-19T20:45:36.909Z,11.03
2023-03-19T20:48:04.207Z,10.76
2023-03-19T20:50:33.028Z,11.01
2023-03-19T20:53:03.601Z,10.93
2023-03-19T20:55:33.849Z,10.48
2023-03-19T20:58:03.833Z,10.73
2023-03-19T21:00:33.121Z,10.84
2023-03-19T21:03:01.712Z,10.52
2023-03-19T21:05:34.419Z,10.81
2023-03-19T21:08:01.312Z,10.30
2023-03-19T21:10:43.007Z,10.82
2023-03-19T21:13:13.501Z,10.43
2023-03-19T21:15:40.679Z,10.43
2023-03-19T21:18:08.388Z,10.09
2023-03-19T21:20:35.829Z,10.47
2023-03-19T21:23:08.737Z,10.88
2023-03-19T21:25:36.749Z,10.69
2023-03-19T21:28:07.246Z,10.91
2023-03-19T21:30:41.502Z,10.93
2023-03-19T21:33:28.906Z,10.40
2023-03-19T21:35:56.463Z,10.76
2023-03-19T21:38:23.827Z,10.95
2023-03-19T21:40:53.974Z,10.80
2023-03-19T21:43:23.453Z,9.93
2023-03-19T21:45:51.482Z,10.27
2023-03-19T21:48:24.019Z,10.66
2023-03-19T21:50:51.873Z,11.05
2023-03-19T21:53:19.431Z,10.60
2023-03-19T21:55:46.417Z,11.11
2023-03-19T21:58:14.836Z,11.04
2023-03-19T22:00:41.718Z,10.92
2023-03-19T22:03:16.192Z,11.04
2023-03-19T22:05:42.721Z,10.77
2023-03-19T22:08:09.315Z,10.94
2023-03-19T22:10:36.484Z,11.08
2023-03-19T22:13:03.804Z,10.76
2023-03-19T22:15:37.665Z,11.25
2023-03-19T22:18:07.256Z,11.28
2023-03-19T22:20:33.698Z,10.81
2023-03-19T22:23:00.443Z,10.96
2023-03-19T22:25:35.332Z,11.04
2023-03-19T22:28:07.635Z,11.24
2023-03-19T22:30:37.218Z,10.97
2023-03-19T22:33:21.405Z,11.35
2023-03-19T22:35:51.798Z,10.99
2023-03-19T22:38:19.108Z,11.47
2023-03-19T22:40:48.333Z,11.24
2023-03-19T22:43:30.626Z,11.02
2023-03-19T22:46:07.717Z,11.22
2023-03-19T22:48:34.460Z,9.96
2023-03-19T22:51:01.133Z,11.38
2023-03-19T22:53:36.419Z,11.38
2023-03-19T22:56:04.092Z,11.36
2023-03-19T22:58:31.182Z,11.01
2023-03-19T23:00:58.173Z,11.23
2023-03-19T23:03:34.816Z,11.27
2023-03-19T23:06:05.392Z,10.98
2023-03-19T23:08:31.898Z,10.96
2023-03-19T23:10:58.527Z,11.09
2023-03-19T23:13:25.811Z,11.36
2023-03-19T23:15:58.779Z,11.29
2023-03-19T23:18:36.731Z,11.27
2023-03-19T23:21:03.991Z,10.98
2023-03-19T23:23:33.710Z,11.35
2023-03-19T23:26:00.543Z,10.97
2023-03-19T23:28:31.988Z,11.35
2023-03-19T23:31:02.870Z,11.34
2023-03-19T23:33:30.324Z,10.74
2023-03-19T23:35:59.452Z,10.82
2023-03-19T23:38:26.474Z,11.00
2023-03-19T23:40:53.913Z,10.86
2023-03-19T23:43:27.239Z,10.96
2023-03-19T23:45:55.202Z,10.96
2023-03-19T23:48:26.621Z,10.61
2023-03-19T23:50:53.571Z,11.32
2023-03-19T23:53:25.153Z,11.02
2023-03-19T23:56:01.040Z,10.94
2023-03-19T23:58:42.857Z,10.69
